DLH857S EDDF-EIDW
Flight info
| Callsign | DLH857S |
|---|---|
| Flight time | N/A |
| Altitude | 38000 |
| Route | OBOKA3D OBOKA Z28 DIBIR DCT BUDIP DCT RAVLO Y70 OTBED L60 PENIL UL28 LELDO M145 BAGSO BAGSO3R |
| Aircraft | A388/J-SADE2E3FGHIJ3J4J5M1RWXY/LB1D1 |
Departure
| Time | N/A |
|---|---|
| Airport | Frankfurt Main Airport (EDDF) |
Arrival
| Time | 2026-04-30 09:46 |
|---|---|
| Airport | Dublin Airport (EIDW) |
| Time | Latitude | Longitude | Altitude | Speed | Heading |
|---|---|---|---|---|---|
| 2026-04-30 09:36 | 53.60233 | -6.42793 | 8143 ft | 278 kts | 304° |
| 2026-04-30 09:36 | 53.61008 | -6.45717 | 7953 ft | 273 kts | 275° |
| 2026-04-30 09:36 | 53.60943 | -6.48830 | 7475 ft | 265 kts | 246° |
| 2026-04-30 09:37 | 53.60102 | -6.51547 | 6733 ft | 265 kts | 227° |
| 2026-04-30 09:37 | 53.58937 | -6.54038 | 5962 ft | 275 kts | 226° |
| 2026-04-30 09:37 | 53.57804 | -6.56601 | 5644 ft | 267 kts | 229° |
| 2026-04-30 09:37 | 53.56815 | -6.59156 | 5489 ft | 254 kts | 232° |
| 2026-04-30 09:38 | 53.55943 | -6.61620 | 5329 ft | 243 kts | 233° |
| 2026-04-30 09:38 | 53.55104 | -6.64087 | 4910 ft | 243 kts | 233° |
| 2026-04-30 09:38 | 53.54082 | -6.66239 | 4470 ft | 228 kts | 206° |
| 2026-04-30 09:38 | 53.52721 | -6.67097 | 4319 ft | 212 kts | 179° |
| 2026-04-30 09:39 | 53.51250 | -6.67263 | 4204 ft | 213 kts | 179° |
| 2026-04-30 09:39 | 53.49781 | -6.67483 | 4020 ft | 211 kts | 180° |
| 2026-04-30 09:39 | 53.48345 | -6.67718 | 3979 ft | 198 kts | 178° |
| 2026-04-30 09:39 | 53.47078 | -6.67308 | 4004 ft | 178 kts | 149° |
| 2026-04-30 09:40 | 53.46192 | -6.66013 | 3983 ft | 164 kts | 127° |
| 2026-04-30 09:40 | 53.45723 | -6.64316 | 3985 ft | 163 kts | 108° |
| 2026-04-30 09:40 | 53.45583 | -6.62395 | 3987 ft | 168 kts | 99° |
| 2026-04-30 09:40 | 53.45515 | -6.60461 | 3988 ft | 168 kts | 102° |
| 2026-04-30 09:41 | 53.45403 | -6.58515 | 3863 ft | 168 kts | 102° |
| 2026-04-30 09:41 | 53.45298 | -6.56573 | 3626 ft | 166 kts | 102° |
| 2026-04-30 09:41 | 53.45189 | -6.54647 | 3415 ft | 166 kts | 103° |
| 2026-04-30 09:41 | 53.45093 | -6.52808 | 3204 ft | 147 kts | 102° |
| 2026-04-30 09:42 | 53.45002 | -6.51194 | 2994 ft | 132 kts | 103° |
| 2026-04-30 09:42 | 53.44919 | -6.49725 | 2830 ft | 125 kts | 103° |
| 2026-04-30 09:42 | 53.44836 | -6.48279 | 2662 ft | 123 kts | 103° |
| 2026-04-30 09:42 | 53.44757 | -6.46840 | 2504 ft | 125 kts | 103° |
| 2026-04-30 09:43 | 53.44683 | -6.45384 | 2326 ft | 126 kts | 102° |
| 2026-04-30 09:43 | 53.44597 | -6.43940 | 2155 ft | 122 kts | 102° |
| 2026-04-30 09:43 | 53.44521 | -6.42528 | 1989 ft | 121 kts | 101° |
| 2026-04-30 09:43 | 53.44440 | -6.41121 | 1823 ft | 122 kts | 99° |
| 2026-04-30 09:44 | 53.44360 | -6.39670 | 1657 ft | 125 kts | 99° |
| 2026-04-30 09:44 | 53.44281 | -6.38211 | 1475 ft | 125 kts | 98° |
| 2026-04-30 09:44 | 53.44194 | -6.36780 | 1312 ft | 124 kts | 100° |
| 2026-04-30 09:44 | 53.44118 | -6.35337 | 1159 ft | 126 kts | 97° |
| 2026-04-30 09:45 | 53.44019 | -6.33910 | 1014 ft | 121 kts | 98° |
| 2026-04-30 09:45 | 53.43944 | -6.32475 | 842 ft | 123 kts | 92° |
| 2026-04-30 09:45 | 53.43880 | -6.31055 | 654 ft | 123 kts | 93° |
| 2026-04-30 09:45 | 53.43811 | -6.29615 | 469 ft | 125 kts | 95° |
| 2026-04-30 09:46 | 53.43725 | -6.28199 | 279 ft | 121 kts | 95° |
| 2026-04-30 09:46 | 53.43656 | -6.26925 | 236 ft | 89 kts | 95° |
| 2026-04-30 09:46 | 53.43616 | -6.26220 | 237 ft | 32 kts | 95° |
| 2026-04-30 09:46 | 53.43601 | -6.25935 | 236 ft | 21 kts | 95° |
| 2026-04-30 09:47 | 53.43538 | -6.25785 | 233 ft | 16 kts | 153° |
| 2026-04-30 09:47 | 53.43435 | -6.25706 | 233 ft | 16 kts | 155° |
| 2026-04-30 09:47 | 53.43330 | -6.25630 | 231 ft | 17 kts | 157° |
| 2026-04-30 09:47 | 53.43217 | -6.25569 | 231 ft | 17 kts | 160° |
| 2026-04-30 09:48 | 53.43107 | -6.25487 | 233 ft | 17 kts | 154° |
| 2026-04-30 09:48 | 53.42996 | -6.25400 | 231 ft | 18 kts | 156° |
| 2026-04-30 09:48 | 53.42889 | -6.25311 | 234 ft | 17 kts | 151° |
| 2026-04-30 09:48 | 53.42801 | -6.25201 | 230 ft | 15 kts | 107° |
| 2026-04-30 09:49 | 53.42776 | -6.25051 | 232 ft | 13 kts | 129° |
| 2026-04-30 09:49 | 53.42709 | -6.24967 | 234 ft | 12 kts | 148° |
| 2026-04-30 09:49 | 53.42636 | -6.24892 | 234 ft | 12 kts | 152° |
| 2026-04-30 09:49 | 53.42555 | -6.24834 | 232 ft | 13 kts | 157° |
| 2026-04-30 09:50 | 53.42468 | -6.24772 | 232 ft | 13 kts | 156° |
| 2026-04-30 09:50 | 53.42393 | -6.24727 | 233 ft | 12 kts | 159° |
| 2026-04-30 09:50 | 53.42315 | -6.24669 | 234 ft | 11 kts | 154° |
| 2026-04-30 09:50 | 53.42291 | -6.24650 | 232 ft | 0 kts | 154° |